createdAt,value
2022-09-20T00:00:20.152Z,100751.34
2022-09-20T00:01:29.205Z,100758.95
2022-09-20T00:02:32.218Z,100750.38
2022-09-20T00:03:36.550Z,100752.50
2022-09-20T00:04:39.641Z,100757.40
2022-09-20T00:05:45.586Z,100756.78
2022-09-20T00:06:48.744Z,100759.52
2022-09-20T00:07:51.592Z,100753.20
2022-09-20T00:08:54.942Z,100758.69
2022-09-20T00:09:58.033Z,100752.00
2022-09-20T00:11:03.376Z,100752.00
2022-09-20T00:12:06.603Z,100747.22
2022-09-20T00:13:12.934Z,100752.09
2022-09-20T00:14:16.029Z,100754.20
2022-09-20T00:15:19.491Z,100751.72
2022-09-20T00:16:26.339Z,100759.33
2022-09-20T00:17:29.420Z,100753.84
2022-09-20T00:18:32.350Z,100755.53
2022-09-20T00:19:35.235Z,100760.17
2022-09-20T00:20:49.023Z,100752.78
2022-09-20T00:21:52.012Z,100758.05
2022-09-20T00:22:55.404Z,100763.27
2022-09-20T00:23:58.941Z,100756.73
2022-09-20T00:25:01.933Z,100753.77
2022-09-20T00:26:05.194Z,100755.44
2022-09-20T00:27:08.224Z,100761.77
2022-09-20T00:28:11.709Z,100748.87
2022-09-20T00:29:14.716Z,100754.34
2022-09-20T00:30:18.196Z,100753.77
2022-09-20T00:31:21.302Z,100752.09
2022-09-20T00:32:24.353Z,100756.11
2022-09-20T00:33:45.829Z,100759.69
2022-09-20T00:35:07.243Z,100749.56
2022-09-20T00:36:10.342Z,100755.89
2022-09-20T00:37:13.197Z,100756.73
2022-09-20T00:38:16.331Z,100762.20
2022-09-20T00:39:19.281Z,100755.05
2022-09-20T00:40:26.376Z,100758.85
2022-09-20T00:41:31.378Z,100754.91
2022-09-20T00:42:35.277Z,100749.06
2022-09-20T00:43:44.142Z,100753.92
2022-09-20T00:45:02.144Z,100752.50
2022-09-20T00:46:08.111Z,100754.63
2022-09-20T00:47:34.040Z,100754.84
2022-09-20T00:48:36.950Z,100754.01
2022-09-20T00:49:40.016Z,100751.27
2022-09-20T00:50:58.627Z,100759.27
2022-09-20T00:52:02.177Z,100754.63
2022-09-20T00:53:32.642Z,100749.77
2022-09-20T00:54:36.409Z,100751.41
2022-09-20T00:55:43.177Z,100749.51
2022-09-20T00:56:46.270Z,100747.61
2022-09-20T00:57:49.759Z,100746.77
2022-09-20T00:58:56.175Z,100744.03
2022-09-20T00:59:59.251Z,100745.13
2022-09-20T01:01:04.365Z,100747.86
2022-09-20T01:02:17.011Z,100751.41
2022-09-20T01:03:22.345Z,100747.86
2022-09-20T01:04:27.966Z,100743.80
2022-09-20T01:05:30.808Z,100748.00
2022-09-20T01:06:34.990Z,100741.43
2022-09-20T01:07:38.041Z,100751.33
2022-09-20T01:08:44.436Z,100741.43
2022-09-20T01:09:47.804Z,100745.27
2022-09-20T01:10:52.138Z,100743.36
2022-09-20T01:11:57.788Z,100747.16
2022-09-20T01:13:00.655Z,100742.75
2022-09-20T01:14:04.073Z,100739.17
2022-09-20T01:15:09.072Z,100740.84
2022-09-20T01:16:16.784Z,100748.84
2022-09-20T01:17:23.334Z,100738.47
2022-09-20T01:18:28.039Z,100742.05
2022-09-20T01:20:01.558Z,100743.73
2022-09-20T01:21:06.829Z,100747.30
2022-09-20T01:22:15.954Z,100749.82
2022-09-20T01:23:40.358Z,100747.08
2022-09-20T01:24:50.291Z,100744.09
2022-09-20T01:26:26.898Z,100746.83
2022-09-20T01:27:45.421Z,100750.41
2022-09-20T01:28:51.741Z,100744.92
2022-09-20T01:31:27.074Z,100749.48
2022-09-20T01:32:33.694Z,100750.75
2022-09-20T01:33:43.143Z,100746.19
2022-09-20T01:34:49.493Z,100742.21
2022-09-20T01:35:54.280Z,100746.48
2022-09-20T01:37:01.073Z,100743.60
2022-09-20T01:38:07.623Z,100747.66
2022-09-20T01:39:26.347Z,100745.36
2022-09-20T01:42:01.524Z,100743.23
2022-09-20T01:43:20.011Z,100755.17
2022-09-20T01:44:26.583Z,100748.86
2022-09-20T01:45:32.002Z,100757.91
2022-09-20T01:46:36.734Z,100749.48
2022-09-20T01:48:10.622Z,100748.17
2022-09-20T01:49:17.438Z,100753.42
2022-09-20T01:50:39.052Z,100744.98
2022-09-20T01:52:01.923Z,100744.98
2022-09-20T01:53:28.027Z,100737.83
2022-09-20T01:54:55.844Z,100732.35
2022-09-20T01:56:05.324Z,100735.31
2022-09-20T01:57:25.024Z,100736.16
2022-09-20T01:58:46.963Z,100749.84
2022-09-20T02:00:13.056Z,100743.78
2022-09-20T02:01:39.059Z,100752.44
2022-09-20T02:03:00.783Z,100749.08
2022-09-20T02:04:13.398Z,100748.70
2022-09-20T02:05:31.863Z,100748.34
2022-09-20T02:07:00.675Z,100745.20
2022-09-20T02:08:29.705Z,100747.56
2022-09-20T02:09:45.128Z,100746.55
2022-09-20T02:11:11.276Z,100759.23
2022-09-20T02:12:33.687Z,100748.76
2022-09-20T02:13:52.630Z,100753.83
2022-09-20T02:14:59.359Z,100748.81
2022-09-20T02:16:21.193Z,100755.34
2022-09-20T02:17:36.565Z,100755.34
2022-09-20T02:19:16.638Z,100746.92
2022-09-20T02:20:32.689Z,100746.45
2022-09-20T02:21:47.877Z,100741.35
2022-09-20T02:23:06.640Z,100745.55
2022-09-20T02:24:19.553Z,100743.19
2022-09-20T02:25:35.778Z,100738.11
2022-09-20T02:27:02.024Z,100739.36
2022-09-20T02:28:23.740Z,100742.47
2022-09-20T02:29:51.234Z,100740.12
2022-09-20T02:31:01.131Z,100737.39
2022-09-20T02:32:24.379Z,100739.50
2022-09-20T02:33:42.833Z,100735.93
2022-09-20T02:35:07.392Z,100738.45
2022-09-20T02:36:17.442Z,100733.81
2022-09-20T02:37:35.800Z,100724.28
2022-09-20T02:39:01.393Z,100732.28
2022-09-20T02:40:26.234Z,100732.06
2022-09-20T02:42:04.925Z,100729.91
2022-09-20T02:44:49.660Z,100727.86
2022-09-20T02:46:23.278Z,100737.69
2022-09-20T02:47:38.633Z,100731.15
2022-09-20T02:49:03.113Z,100726.52
2022-09-20T02:50:27.727Z,100727.35
2022-09-20T02:51:42.964Z,100729.47
2022-09-20T02:53:23.471Z,100741.70
2022-09-20T02:54:46.463Z,100744.08
2022-09-20T02:56:08.157Z,100740.12
2022-09-20T02:57:20.905Z,100735.56
2022-09-20T02:58:42.702Z,100728.00
2022-09-20T02:59:49.449Z,100730.12
2022-09-20T03:00:56.069Z,100734.75
2022-09-20T03:02:20.853Z,100732.86
2022-09-20T03:03:43.838Z,100737.49
2022-09-20T03:05:20.494Z,100735.81
2022-09-20T03:06:30.870Z,100732.48
2022-09-20T03:07:43.242Z,100738.39
2022-09-20T03:08:52.545Z,100739.45
2022-09-20T03:10:10.982Z,100740.55
2022-09-20T03:11:50.895Z,100736.13
2022-09-20T03:13:15.406Z,100739.30
2022-09-20T03:14:25.088Z,100740.83
2022-09-20T03:16:06.709Z,100735.82
2022-09-20T03:17:25.387Z,100738.77
2022-09-20T03:18:44.149Z,100734.83
2022-09-20T03:20:08.757Z,100749.56
2022-09-20T03:21:33.600Z,100742.41
2022-09-20T03:22:55.378Z,100737.99
2022-09-20T03:24:13.808Z,100745.98
2022-09-20T03:25:26.384Z,100745.52
2022-09-20T03:26:41.114Z,100753.08
2022-09-20T03:28:11.665Z,100743.56
2022-09-20T03:29:36.070Z,100748.35
2022-09-20T03:30:54.784Z,100746.23
2022-09-20T03:32:17.715Z,100747.08
2022-09-20T03:33:41.157Z,100733.39
2022-09-20T03:35:06.017Z,100730.66
2022-09-20T03:36:34.081Z,100728.51
2022-09-20T03:38:09.508Z,100728.07
2022-09-20T03:39:24.882Z,100725.48
2022-09-20T03:40:46.952Z,100720.81
2022-09-20T03:42:26.774Z,100725.59
2022-09-20T03:43:52.262Z,100727.64
2022-09-20T03:45:14.924Z,100724.22
2022-09-20T03:46:21.194Z,100721.87
2022-09-20T03:48:02.585Z,100726.88
2022-09-20T03:49:26.976Z,100715.45
2022-09-20T03:50:53.467Z,100717.74
2022-09-20T03:52:05.677Z,100722.75
2022-09-20T03:53:26.852Z,100728.84
2022-09-20T03:54:49.835Z,100725.63
2022-09-20T03:56:07.520Z,100725.19
2022-09-20T03:57:17.393Z,100721.97
2022-09-20T03:58:27.481Z,100724.27
2022-09-20T03:59:36.972Z,100723.20
2022-09-20T04:02:18.862Z,100722.30
2022-09-20T04:03:45.564Z,100731.09
2022-09-20T04:04:52.062Z,100732.29
2022-09-20T04:06:18.008Z,100735.64
2022-09-20T04:07:43.026Z,100742.80
2022-09-20T04:09:05.793Z,100738.75
2022-09-20T04:10:31.859Z,100743.16
2022-09-20T04:11:51.184Z,100749.04
2022-09-20T04:13:32.569Z,100748.78
2022-09-20T04:14:41.980Z,100744.98
2022-09-20T04:16:03.789Z,100750.23
2022-09-20T04:17:19.483Z,100748.08
2022-09-20T04:18:34.833Z,100749.76
2022-09-20T04:19:56.505Z,100750.38
2022-09-20T04:21:20.467Z,100754.31
2022-09-20T04:22:26.016Z,100749.45
2022-09-20T04:23:44.736Z,100749.19
2022-09-20T04:24:54.309Z,100752.55
2022-09-20T04:26:00.793Z,100754.00
2022-09-20T04:27:07.551Z,100748.27
2022-09-20T04:28:28.942Z,100749.71
2022-09-20T04:29:53.413Z,100742.91
2022-09-20T04:31:00.029Z,100746.27
2022-09-20T04:32:31.059Z,100746.88
2022-09-20T04:33:37.751Z,100747.72
2022-09-20T04:35:08.631Z,100739.23
2022-09-20T04:36:30.877Z,100742.59
2022-09-20T04:37:37.886Z,100734.13
2022-09-20T04:38:41.512Z,100742.36
2022-09-20T04:40:07.745Z,100744.63
2022-09-20T04:41:39.824Z,100737.00
2022-09-20T04:43:19.495Z,100736.52
2022-09-20T04:44:47.039Z,100737.13
2022-09-20T04:46:15.787Z,100726.77
2022-09-20T04:47:47.110Z,100730.94
2022-09-20T04:48:56.565Z,100726.93
2022-09-20T04:50:34.906Z,100730.03
2022-09-20T04:52:03.371Z,100737.77
2022-09-20T04:53:18.575Z,100736.25
2022-09-20T04:54:43.647Z,100745.89
2022-09-20T04:55:59.713Z,100739.95
2022-09-20T04:57:18.368Z,100743.27
2022-09-20T04:58:35.551Z,100741.14
2022-09-20T05:00:04.010Z,100735.66
2022-09-20T05:01:34.625Z,100740.08
2022-09-20T05:02:44.199Z,100739.81
2022-09-20T05:04:16.764Z,100742.33
2022-09-20T05:05:31.581Z,100742.94
2022-09-20T05:07:00.798Z,100751.75
2022-09-20T05:08:26.918Z,100747.70
2022-09-20T05:09:54.507Z,100738.18
2022-09-20T05:11:22.893Z,100742.57
2022-09-20T05:12:33.834Z,100736.02
2022-09-20T05:13:58.224Z,100734.72
2022-09-20T05:15:30.051Z,100731.70
2022-09-20T05:16:59.999Z,100729.34
2022-09-20T05:18:21.997Z,100730.76
2022-09-20T05:19:45.031Z,100728.39
2022-09-20T05:21:06.836Z,100728.73
2022-09-20T05:22:21.948Z,100721.67
2022-09-20T05:23:46.689Z,100722.05
2022-09-20T05:25:09.594Z,100719.65
2022-09-20T05:26:23.197Z,100714.50
2022-09-20T05:27:45.026Z,100716.78
2022-09-20T05:29:09.618Z,100725.97
2022-09-20T05:30:22.484Z,100722.73
2022-09-20T05:31:48.174Z,100723.09
2022-09-20T05:33:26.224Z,100719.86
2022-09-20T05:34:35.715Z,100722.13
2022-09-20T05:36:02.791Z,100732.39
2022-09-20T05:37:25.755Z,100725.83
2022-09-20T05:38:50.238Z,100730.32
2022-09-20T05:39:56.726Z,100716.72
2022-09-20T05:41:17.067Z,100722.31
2022-09-20T05:42:38.565Z,100726.27
2022-09-20T05:45:22.974Z,100721.41
2022-09-20T05:47:01.190Z,100726.23
2022-09-20T05:48:19.413Z,100720.84
2022-09-20T05:49:25.934Z,100723.91
2022-09-20T05:50:32.803Z,100725.92
2022-09-20T05:52:02.155Z,100730.95
2022-09-20T05:53:31.374Z,100734.03
2022-09-20T05:54:57.188Z,100731.38
2022-09-20T05:56:26.207Z,100736.41
2022-09-20T05:57:49.376Z,100731.00
2022-09-20T05:59:14.532Z,100728.34
2022-09-20T06:00:21.493Z,100728.19
2022-09-20T06:01:37.145Z,100730.76
2022-09-20T06:03:18.409Z,100733.87
2022-09-20T06:04:27.734Z,100725.70
2022-09-20T06:05:55.368Z,100726.62
2022-09-20T06:07:20.097Z,100723.36
2022-09-20T06:08:58.364Z,100732.05
2022-09-20T06:10:27.337Z,100728.31
2022-09-20T06:12:02.694Z,100728.15
2022-09-20T06:13:12.339Z,100726.91
2022-09-20T06:14:27.535Z,100726.98
2022-09-20T06:15:52.390Z,100730.66
2022-09-20T06:17:07.851Z,100733.23
2022-09-20T06:18:26.426Z,100728.64
2022-09-20T06:19:48.192Z,100737.81
2022-09-20T06:21:22.317Z,100729.88
2022-09-20T06:22:28.864Z,100736.56
2022-09-20T06:23:34.001Z,100729.45
2022-09-20T06:25:04.753Z,100726.17
2022-09-20T06:26:11.766Z,100730.36
2022-09-20T06:27:18.692Z,100726.84
2022-09-20T06:28:25.124Z,100727.42
2022-09-20T06:29:34.807Z,100719.72
2022-09-20T06:30:42.901Z,100718.39
2022-09-20T06:31:46.120Z,100716.20
2022-09-20T06:32:57.170Z,100720.38
2022-09-20T06:34:09.323Z,100720.12
2022-09-20T06:35:12.393Z,100711.58
2022-09-20T06:36:37.256Z,100707.75
2022-09-20T06:38:06.606Z,100714.09
2022-09-20T06:39:40.205Z,100700.56
2022-09-20T06:41:04.473Z,100708.02
2022-09-20T06:42:09.265Z,100707.19
2022-09-20T06:43:13.919Z,100702.77
2022-09-20T06:44:16.765Z,100706.07
2022-09-20T06:45:19.860Z,100697.80
2022-09-20T06:46:23.560Z,100694.55
2022-09-20T06:47:26.469Z,100694.03
2022-09-20T06:48:31.161Z,100689.94
2022-09-20T06:49:35.503Z,100687.77
2022-09-20T06:50:39.293Z,100691.67
2022-09-20T06:51:42.986Z,100687.55
2022-09-20T06:52:46.972Z,100687.30
2022-09-20T06:53:50.375Z,100681.30
2022-09-20T06:54:55.495Z,100695.38
2022-09-20T06:56:00.397Z,100684.11
2022-09-20T06:57:05.718Z,100683.83
2022-09-20T06:58:09.324Z,100678.06
2022-09-20T06:59:12.573Z,100682.24
2022-09-20T07:00:16.009Z,100672.63
2022-09-20T07:01:29.628Z,100668.54
2022-09-20T07:02:26.604Z,100665.50
2022-09-20T07:03:31.328Z,100668.59
2022-09-20T07:04:35.164Z,100679.92
2022-09-20T07:05:38.594Z,100664.80
2022-09-20T07:06:41.626Z,100673.38
2022-09-20T07:07:44.935Z,100671.20
2022-09-20T07:08:48.366Z,100675.34
2022-09-20T07:09:51.217Z,100675.09
2022-09-20T07:10:54.361Z,100670.97
2022-09-20T07:11:58.603Z,100684.51
2022-09-20T07:13:02.181Z,100682.33
2022-09-20T07:14:07.370Z,100684.55
2022-09-20T07:15:10.469Z,100676.03
2022-09-20T07:16:14.582Z,100679.38
2022-09-20T07:17:17.492Z,100671.64
2022-09-20T07:18:20.591Z,100669.47
2022-09-20T07:19:23.731Z,100676.66
2022-09-20T07:20:27.648Z,100680.80
2022-09-20T07:21:30.582Z,100673.11
2022-09-20T07:22:33.409Z,100674.78
2022-09-20T07:23:36.234Z,100678.38
2022-09-20T07:24:39.971Z,100673.41
2022-09-20T07:25:42.908Z,100674.23
2022-09-20T07:26:57.930Z,100673.41
2022-09-20T07:28:01.299Z,100672.31
2022-09-20T07:29:06.226Z,100669.55
2022-09-20T07:30:10.645Z,100682.27
2022-09-20T07:31:13.887Z,100677.58
2022-09-20T07:32:17.348Z,100674.83
2022-09-20T07:33:21.245Z,100675.38
2022-09-20T07:34:25.175Z,100669.59
2022-09-20T07:35:28.658Z,100671.27
2022-09-20T07:36:31.915Z,100673.48
2022-09-20T07:37:37.258Z,100669.38
2022-09-20T07:38:41.480Z,100675.20
2022-09-20T07:39:45.449Z,100668.88
2022-09-20T07:40:57.130Z,100671.97
2022-09-20T07:42:01.350Z,100668.41
2022-09-20T07:43:04.327Z,100669.28
2022-09-20T07:44:27.209Z,100660.45
2022-09-20T07:45:31.023Z,100661.62
2022-09-20T07:46:35.561Z,100661.42
2022-09-20T07:47:40.516Z,100660.33
2022-09-20T07:48:43.689Z,100657.60
2022-09-20T07:49:46.737Z,100661.52
2022-09-20T07:50:56.075Z,100657.37
2022-09-20T07:51:59.050Z,100655.19
2022-09-20T07:53:03.456Z,100655.47
2022-09-20T07:54:06.438Z,100654.13
2022-09-20T07:55:09.290Z,100651.91
2022-09-20T07:56:15.081Z,100649.72
2022-09-20T07:57:18.058Z,100648.62
2022-09-20T07:58:21.412Z,100651.13
2022-09-20T07:59:25.367Z,100642.55
2022-09-20T08:00:28.899Z,100640.62
2022-09-20T08:01:31.953Z,100645.88
2022-09-20T08:02:35.004Z,100634.83
2022-09-20T08:03:38.118Z,100633.73
2022-09-20T08:04:41.160Z,100634.57
2022-09-20T08:05:44.090Z,100627.66
2022-09-20T08:06:47.178Z,100633.76
2022-09-20T08:07:50.348Z,100629.61
2022-09-20T08:08:53.921Z,100623.82
2022-09-20T08:09:56.888Z,100626.06
2022-09-20T08:11:06.479Z,100630.47
2022-09-20T08:14:21.351Z,100623.58
2022-09-20T08:15:25.374Z,100622.48
2022-09-20T08:16:30.065Z,100624.16
2022-09-20T08:17:33.134Z,100620.27
2022-09-20T08:18:36.790Z,100616.14
2022-09-20T08:19:40.248Z,100621.41
2022-09-20T08:20:43.218Z,100620.02
2022-09-20T08:21:46.529Z,100614.23
2022-09-20T08:23:06.381Z,100606.50
2022-09-20T08:23:54.206Z,100611.73
2022-09-20T08:24:57.140Z,100616.74
2022-09-20T08:26:02.167Z,100618.41
2022-09-20T08:27:05.301Z,100612.33
2022-09-20T08:28:08.173Z,100610.97
2022-09-20T08:29:11.698Z,100608.48
2022-09-20T08:30:14.933Z,100612.34
2022-09-20T08:31:21.649Z,100607.16
2022-09-20T08:32:24.813Z,100610.20
2022-09-20T08:33:28.100Z,100608.53
2022-09-20T08:34:31.049Z,100606.87
2022-09-20T09:06:00.907Z,100552.96
2022-09-20T09:07:04.319Z,100551.29
2022-09-20T09:08:16.974Z,100559.06
2022-09-20T09:09:26.272Z,100550.76
2022-09-20T09:10:34.022Z,100556.29
2022-09-20T09:11:38.907Z,100552.69
2022-09-20T09:12:48.799Z,100554.63
2022-09-20T09:13:57.446Z,100548.26
2022-09-20T09:15:03.983Z,100550.76
2022-09-20T09:16:10.804Z,100551.86
2022-09-20T09:17:16.889Z,100549.92
2022-09-20T09:18:19.819Z,100549.92
2022-09-20T09:19:33.330Z,100549.92
2022-09-20T09:20:35.196Z,100554.33
2022-09-20T09:21:41.664Z,100552.13
2022-09-20T09:22:45.433Z,100548.27
2022-09-20T09:23:56.601Z,100551.59
2022-09-20T09:25:18.047Z,100551.86
2022-09-20T09:26:23.217Z,100546.59
2022-09-20T09:27:26.174Z,100552.13
2022-09-20T09:28:31.140Z,100543.30
2022-09-20T09:29:35.001Z,100548.27
2022-09-20T09:30:44.283Z,100544.96
2022-09-20T09:31:52.084Z,100551.59
2022-09-20T09:34:30.383Z,100540.80
2022-09-20T09:35:35.436Z,100546.88
2022-09-20T09:36:43.919Z,100541.61
2022-09-20T09:37:56.568Z,100544.94
2022-09-20T09:39:29.125Z,100534.70
2022-09-20T09:40:32.568Z,100537.47
2022-09-20T09:41:36.373Z,100527.23
2022-09-20T09:42:48.573Z,100527.23
2022-09-20T09:44:05.879Z,100529.16
2022-09-20T09:45:14.939Z,100529.73
2022-09-20T09:46:21.613Z,100513.65
2022-09-20T09:47:28.981Z,100518.34
2022-09-20T09:48:32.230Z,100513.93
2022-09-20T09:49:35.564Z,100511.15
2022-09-20T09:50:39.513Z,100517.77
2022-09-20T09:52:09.007Z,100518.63
2022-09-20T09:53:15.563Z,100518.35
2022-09-20T09:54:19.179Z,100515.84
2022-09-20T09:55:22.953Z,100522.77
2022-09-20T09:56:32.970Z,100515.83
2022-09-20T09:58:03.682Z,100521.09
2022-09-20T09:59:12.890Z,100522.75
2022-09-20T10:00:22.674Z,100511.37
2022-09-20T10:01:33.213Z,100512.20
2022-09-20T10:02:53.104Z,100512.77
2022-09-20T10:04:02.603Z,100514.13
2022-09-20T10:05:34.882Z,100513.84
2022-09-20T10:06:52.443Z,100508.59
2022-09-20T10:08:15.636Z,100509.12
2022-09-20T10:09:28.374Z,100509.95
2022-09-20T10:10:50.520Z,100509.41
2022-09-20T10:12:06.100Z,100507.44
2022-09-20T10:13:39.634Z,100501.34
2022-09-20T10:15:10.529Z,100506.61
2022-09-20T10:16:34.194Z,100495.78
2022-09-20T10:17:59.724Z,100493.56
2022-09-20T10:19:06.541Z,100490.80
2022-09-20T10:20:22.088Z,100489.96
2022-09-20T10:21:31.614Z,100480.27
2022-09-20T10:23:00.117Z,100490.27
2022-09-20T10:24:09.428Z,100487.77
2022-09-20T10:25:23.399Z,100482.50
2022-09-20T10:26:33.078Z,100481.70
2022-09-20T10:27:57.335Z,100470.03
2022-09-20T10:29:15.152Z,100473.36
2022-09-20T10:30:24.777Z,100470.84
2022-09-20T10:33:19.203Z,100463.00
2022-09-20T10:34:49.008Z,100461.64
2022-09-20T10:36:01.203Z,100458.59
2022-09-20T10:37:07.674Z,100464.14
2022-09-20T10:38:21.135Z,100463.58
2022-09-20T10:39:33.753Z,100462.22
2022-09-20T10:40:58.426Z,100464.44
2022-09-20T10:42:43.129Z,100460.56
2022-09-20T10:43:55.596Z,100465.27
2022-09-20T10:45:05.416Z,100456.95
2022-09-20T10:46:33.347Z,100460.56
2022-09-20T10:47:58.621Z,100450.31
2022-09-20T10:49:11.480Z,100457.52
2022-09-20T10:50:30.376Z,100452.80
2022-09-20T10:51:52.671Z,100454.44
2022-09-20T10:53:18.742Z,100446.13
2022-09-20T10:54:47.972Z,100451.39
2022-09-20T10:56:20.253Z,100445.02
2022-09-20T10:57:37.132Z,100433.93
2022-09-20T10:59:00.193Z,100445.84
2022-09-20T11:00:24.239Z,100441.14
2022-09-20T11:02:03.824Z,100428.94
2022-09-20T11:03:16.230Z,100433.37
2022-09-20T11:04:39.424Z,100427.52
2022-09-20T11:05:54.744Z,100428.66
2022-09-20T11:07:34.602Z,100431.44
2022-09-20T11:08:39.561Z,100427.52
2022-09-20T11:09:49.840Z,100421.70
2022-09-20T11:10:59.634Z,100426.97
2022-09-20T11:12:15.713Z,100422.77
2022-09-20T11:13:28.408Z,100413.08
2022-09-20T11:15:47.891Z,100411.92
2022-09-20T11:16:54.537Z,100413.28
2022-09-20T11:18:17.913Z,100412.72
2022-09-20T11:19:44.946Z,100423.81
2022-09-20T11:20:51.489Z,100409.36
2022-09-20T11:22:07.172Z,100416.28
2022-09-20T11:23:20.757Z,100416.80
2022-09-20T11:24:34.574Z,100422.90
2022-09-20T11:25:44.013Z,100413.75
2022-09-20T11:26:53.490Z,100416.28
2022-09-20T11:28:21.294Z,100415.16
2022-09-20T11:29:28.050Z,100422.38
2022-09-20T11:30:34.208Z,100418.77
2022-09-20T11:31:41.251Z,100416.83
2022-09-20T11:33:21.012Z,100421.55
2022-09-20T11:34:27.579Z,100418.45
2022-09-20T11:35:52.070Z,100416.52
2022-09-20T11:37:01.930Z,100419.84
2022-09-20T11:38:09.151Z,100414.02
2022-09-20T11:39:24.117Z,100416.47
2022-09-20T11:40:30.913Z,100413.42
2022-09-20T11:41:34.668Z,100410.37
2022-09-20T11:42:41.142Z,100415.91
2022-09-20T11:43:45.853Z,100405.65
2022-09-20T11:44:50.019Z,100407.28
2022-09-20T11:45:57.394Z,100409.77
2022-09-20T11:47:13.197Z,100413.37
2022-09-20T11:48:31.799Z,100413.37
2022-09-20T11:49:56.494Z,100407.55
2022-09-20T11:51:21.438Z,100415.59
2022-09-20T11:52:44.681Z,100409.21
2022-09-20T11:54:12.157Z,100410.55
2022-09-20T11:55:30.427Z,100410.55
2022-09-20T11:56:34.104Z,100412.50
2022-09-20T11:57:37.700Z,100412.81
2022-09-20T11:58:52.299Z,100405.61
2022-09-20T11:59:58.411Z,100408.66
2022-09-20T12:01:02.140Z,100408.11
2022-09-20T12:02:18.527Z,100410.37
2022-09-20T12:03:31.066Z,100409.53
2022-09-20T12:04:35.785Z,100411.76
2022-09-20T12:05:41.753Z,100404.55
2022-09-20T12:06:45.823Z,100406.80
2022-09-20T12:07:52.994Z,100395.99
2022-09-20T12:08:58.075Z,100405.42
2022-09-20T12:10:04.586Z,100402.13
2022-09-20T12:11:10.865Z,100407.13
2022-09-20T12:12:35.878Z,100404.60
2022-09-20T12:13:41.995Z,100402.14
2022-09-20T12:14:48.433Z,100398.82
2022-09-20T12:16:03.765Z,100397.44
2022-09-20T12:17:26.890Z,100404.92
2022-09-20T12:18:36.284Z,100401.62
2022-09-20T12:19:39.947Z,100402.19
2022-09-20T12:20:52.738Z,100396.95
2022-09-20T12:22:03.546Z,100408.05
2022-09-20T12:23:44.770Z,100402.78
2022-09-20T12:24:51.363Z,100400.29
2022-09-20T12:26:03.814Z,100405.59
2022-09-20T12:27:28.840Z,100395.89
2022-09-20T12:28:38.485Z,100398.14
2022-09-20T12:29:53.834Z,100398.42
2022-09-20T12:31:20.326Z,100393.98
2022-09-20T12:32:47.353Z,100401.47
2022-09-20T12:34:02.094Z,100393.44
2022-09-20T12:35:39.264Z,100393.16
2022-09-20T12:36:45.959Z,100395.09
2022-09-20T12:37:48.808Z,100391.22
2022-09-20T12:39:17.544Z,100393.98
2022-09-20T12:40:19.526Z,100390.11
2022-09-20T12:41:28.324Z,100402.02
2022-09-20T12:42:31.349Z,100386.23
2022-09-20T12:43:37.197Z,100396.20
2022-09-20T12:44:53.964Z,100393.13
2022-09-20T12:46:02.569Z,100378.98
2022-09-20T12:47:09.464Z,100378.70
2022-09-20T12:48:15.898Z,100380.64
2022-09-20T12:49:40.812Z,100371.73
2022-09-20T12:51:05.664Z,100368.97
2022-09-20T12:52:47.262Z,100375.06
2022-09-20T12:54:02.387Z,100372.56
2022-09-20T12:56:13.826Z,100373.98
2022-09-20T12:57:20.364Z,100372.05
2022-09-20T12:59:44.176Z,100369.80
2022-09-20T13:00:50.905Z,100364.80
2022-09-20T13:01:53.868Z,100359.26
2022-09-20T13:02:59.042Z,100362.55
2022-09-20T13:04:34.012Z,100352.61
2022-09-20T13:05:40.265Z,100360.92
2022-09-20T13:06:43.774Z,100360.65
2022-09-20T13:07:49.716Z,100355.70
2022-09-20T13:09:05.221Z,100359.58
2022-09-20T13:10:23.786Z,100359.03
2022-09-20T13:11:30.715Z,100357.68
2022-09-20T13:12:36.922Z,100349.64
2022-09-20T13:13:58.563Z,100347.98
2022-09-20T13:15:02.792Z,100342.44
2022-09-20T13:16:07.182Z,100345.52
2022-09-20T13:17:30.352Z,100343.03
2022-09-20T13:18:35.854Z,100349.41
2022-09-20T13:19:50.282Z,100346.32
2022-09-20T13:20:56.049Z,100353.53
2022-09-20T13:22:32.596Z,100343.55
2022-09-20T13:23:39.822Z,100346.88
2022-09-20T13:24:54.207Z,100341.88
2022-09-20T13:25:58.115Z,100349.89
2022-09-20T13:27:20.050Z,100342.95
2022-09-20T13:28:36.022Z,100350.98
2022-09-20T13:29:41.806Z,100346.52
2022-09-20T13:30:45.187Z,100348.69
2022-09-20T13:31:48.557Z,100347.02
2022-09-20T13:32:51.565Z,100343.93
2022-09-20T13:33:54.727Z,100340.59
2022-09-20T13:35:09.802Z,100334.22
2022-09-20T13:36:13.976Z,100339.48
2022-09-20T13:37:21.026Z,100339.48
2022-09-20T13:38:27.960Z,100335.88
2022-09-20T13:39:35.559Z,100345.03
2022-09-20T13:40:46.719Z,100338.66
2022-09-20T13:41:50.070Z,100339.48
2022-09-20T13:43:19.557Z,100340.59
2022-09-20T13:44:00.503Z,100343.38
2022-09-20T13:45:04.838Z,100337.00
2022-09-20T13:46:16.755Z,100340.59
2022-09-20T13:47:22.766Z,100340.31
2022-09-20T13:48:28.540Z,100341.14
2022-09-20T13:49:32.363Z,100343.92
2022-09-20T13:50:37.253Z,100337.55
2022-09-20T13:51:40.233Z,100338.37
2022-09-20T13:52:54.856Z,100341.14
2022-09-20T13:54:18.028Z,100337.23
2022-09-20T13:55:32.970Z,100341.66
2022-09-20T13:56:37.561Z,100331.16
2022-09-20T13:57:40.974Z,100332.22
2022-09-20T13:58:44.052Z,100331.94
2022-09-20T13:59:48.256Z,100329.40
2022-09-20T14:00:55.066Z,100327.69
2022-09-20T14:01:59.051Z,100328.23
2022-09-20T14:03:02.157Z,100326.01
2022-09-20T14:04:08.666Z,100326.84
2022-09-20T14:05:18.268Z,100328.47
2022-09-20T14:06:29.107Z,100329.30
2022-09-20T14:07:33.361Z,100329.84
2022-09-20T14:08:46.715Z,100330.95
2022-09-20T14:09:51.245Z,100330.95
2022-09-20T14:11:06.064Z,100325.69
2022-09-20T14:12:11.906Z,100322.09
2022-09-20T14:13:16.852Z,100319.91
2022-09-20T14:14:22.357Z,100320.20
2022-09-20T14:15:29.000Z,100321.31
2022-09-20T14:16:43.774Z,100322.19
2022-09-20T14:17:47.788Z,100319.19
2022-09-20T14:18:51.300Z,100317.80
2022-09-20T14:19:55.270Z,100322.01
2022-09-20T14:20:59.803Z,100323.09
2022-09-20T14:22:04.305Z,100322.85
2022-09-20T14:23:22.052Z,100323.96
2022-09-20T14:24:28.236Z,100318.98
2022-09-20T14:25:33.120Z,100317.91
2022-09-20T14:26:39.196Z,100319.34
2022-09-20T14:27:42.927Z,100324.62
2022-09-20T14:28:46.222Z,100317.73
2022-09-20T14:29:51.893Z,100315.52
2022-09-20T14:30:58.563Z,100314.45
2022-09-20T14:32:07.698Z,100316.67
2022-09-20T14:33:14.106Z,100321.97
2022-09-20T14:34:17.015Z,100318.97
2022-09-20T14:35:21.673Z,100315.92
2022-09-20T14:36:27.856Z,100318.45
2022-09-20T14:37:49.351Z,100322.61
2022-09-20T14:38:55.416Z,100324.03
2022-09-20T14:40:01.652Z,100321.30